Tabatinga, Tabatinga International Airport (SBTT)

NameTabatinga International Airport
CityTabatinga
CountryBrazil
ICAOSBTT
IATATBT
Altitude85 m
CoordinatesGoogle Map
Live Air TrafficLiveATC.net
METARSBTT 160545Z 36002KT CAVOK 25/22 Q1011
2019-09-16 05:45:00 Wind: North (360°) 1.03 m/s - Visibility: > 10000 m - Weather: CAVOK - Temperature: 25 °C - Dew point: 22 °C - Humidity: 83.5% - Pressure: 1011 hPa

Sorry, no flights used the airport in this database.